createdAt,value
2023-02-03T00:00:35.455Z,68.07
2023-02-03T00:03:03.735Z,67.89
2023-02-03T00:05:31.792Z,67.75
2023-02-03T00:08:00.130Z,67.75
2023-02-03T00:10:31.357Z,68.10
2023-02-03T00:12:59.503Z,68.00
2023-02-03T00:15:30.395Z,67.94
2023-02-03T00:17:59.812Z,67.78
2023-02-03T00:20:29.532Z,67.86
2023-02-03T00:23:05.309Z,67.96
2023-02-03T00:25:33.516Z,67.94
2023-02-03T00:28:01.565Z,68.02
2023-02-03T00:30:29.719Z,67.92
2023-02-03T00:32:59.078Z,68.00
2023-02-03T00:35:27.103Z,68.21
2023-02-03T00:37:55.595Z,68.01
2023-02-03T00:40:25.374Z,68.03
2023-02-03T00:42:55.792Z,68.25
2023-02-03T00:45:23.910Z,68.29
2023-02-03T00:47:51.896Z,68.35
2023-02-03T00:50:21.343Z,67.94
2023-02-03T00:52:49.310Z,68.28
2023-02-03T00:55:17.599Z,68.04
2023-02-03T00:57:45.528Z,68.18
2023-02-03T01:00:14.464Z,68.19
2023-02-03T01:02:42.483Z,68.20
2023-02-03T01:05:10.508Z,68.10
2023-02-03T01:07:40.092Z,67.81
2023-02-03T01:10:08.846Z,67.46
2023-02-03T01:12:36.827Z,67.31
2023-02-03T01:15:05.216Z,67.38
2023-02-03T01:17:35.064Z,67.36
2023-02-03T01:20:03.126Z,67.33
2023-02-03T01:22:31.350Z,67.51
2023-02-03T01:25:00.944Z,67.51
2023-02-03T01:27:28.999Z,67.01
2023-02-03T01:29:57.857Z,67.03
2023-02-03T01:32:27.039Z,66.86
2023-02-03T01:34:56.382Z,66.81
2023-02-03T01:37:24.412Z,66.72
2023-02-03T01:39:52.618Z,66.64
2023-02-03T01:42:22.622Z,66.64
2023-02-03T01:44:52.404Z,67.05
2023-02-03T01:47:25.434Z,66.65
2023-02-03T01:49:56.782Z,66.87
2023-02-03T01:52:27.029Z,66.51
2023-02-03T01:54:56.659Z,66.36
2023-02-03T01:57:27.528Z,66.34
2023-02-03T01:59:55.866Z,66.34
2023-02-03T02:02:23.865Z,66.04
2023-02-03T02:04:55.153Z,66.11
2023-02-03T02:07:23.213Z,66.14
2023-02-03T02:09:51.139Z,65.89
2023-02-03T02:12:19.173Z,65.82
2023-02-03T02:14:48.481Z,65.91
2023-02-03T02:17:29.899Z,65.75
2023-02-03T02:20:34.961Z,65.99
2023-02-03T02:23:19.346Z,65.94
2023-02-03T02:25:57.996Z,65.83
2023-02-03T02:28:39.533Z,65.92
2023-02-03T02:31:38.980Z,66.13
2023-02-03T02:34:09.532Z,66.19
2023-02-03T02:36:42.456Z,66.05
2023-02-03T02:39:11.572Z,66.19
2023-02-03T02:41:42.291Z,66.31
2023-02-03T02:44:12.590Z,66.30
2023-02-03T02:46:42.762Z,66.04
2023-02-03T02:49:14.471Z,66.22
2023-02-03T02:51:43.913Z,66.15
2023-02-03T02:54:13.740Z,66.18
2023-02-03T02:56:41.767Z,66.25
2023-02-03T02:59:09.779Z,66.07
2023-02-03T03:01:38.010Z,66.13
2023-02-03T03:04:06.572Z,66.17
2023-02-03T03:06:38.603Z,66.36
2023-02-03T03:09:07.445Z,66.23
2023-02-03T03:11:38.614Z,66.58
2023-02-03T03:14:06.759Z,66.63
2023-02-03T03:16:35.669Z,66.40
2023-02-03T03:19:05.939Z,66.39
2023-02-03T03:21:35.991Z,66.48
2023-02-03T03:24:06.967Z,66.50
2023-02-03T03:26:36.727Z,66.12
2023-02-03T03:29:08.622Z,65.98
2023-02-03T03:31:37.242Z,66.39
2023-02-03T03:34:05.225Z,66.71
2023-02-03T03:36:38.096Z,66.54
2023-02-03T03:39:11.187Z,66.82
2023-02-03T03:41:42.178Z,66.94
2023-02-03T03:44:12.549Z,66.80
2023-02-03T03:46:42.755Z,67.04
2023-02-03T03:49:10.839Z,66.91
2023-02-03T03:51:41.353Z,67.05
2023-02-03T03:54:11.815Z,66.94
2023-02-03T03:56:42.179Z,67.12
2023-02-03T03:59:10.385Z,67.14
2023-02-03T04:01:38.417Z,67.12
2023-02-03T04:04:08.301Z,66.94
2023-02-03T04:06:36.326Z,67.06
2023-02-03T04:09:05.609Z,66.98
2023-02-03T04:11:52.758Z,67.23
2023-02-03T04:14:20.741Z,67.71
2023-02-03T04:16:48.670Z,67.59
2023-02-03T04:19:16.615Z,67.32
2023-02-03T04:21:44.615Z,67.85
2023-02-03T04:24:13.142Z,67.74
2023-02-03T04:26:42.497Z,67.98
2023-02-03T04:29:10.523Z,67.60
2023-02-03T04:31:39.849Z,67.60
2023-02-03T04:34:07.917Z,67.79
2023-02-03T04:36:36.139Z,67.74
2023-02-03T04:39:04.411Z,67.58
2023-02-03T04:41:32.397Z,67.72
2023-02-03T04:44:06.918Z,67.59
2023-02-03T04:46:35.512Z,67.59
2023-02-03T04:49:03.560Z,67.33
2023-02-03T04:51:31.527Z,67.37
2023-02-03T04:53:59.466Z,67.50
2023-02-03T04:56:27.477Z,68.15
2023-02-03T04:58:55.420Z,68.00
2023-02-03T05:01:24.857Z,68.18
2023-02-03T05:03:52.807Z,68.21
2023-02-03T05:06:25.233Z,68.30
2023-02-03T05:08:53.434Z,68.40
2023-02-03T05:11:21.352Z,68.71
2023-02-03T05:13:49.404Z,68.37
2023-02-03T05:16:17.516Z,68.50
2023-02-03T05:18:47.149Z,69.07
2023-02-03T05:21:15.130Z,68.42
2023-02-03T05:23:43.165Z,68.44
2023-02-03T05:26:11.400Z,68.57
2023-02-03T05:28:39.363Z,68.45
2023-02-03T05:31:07.282Z,68.51
2023-02-03T05:33:38.075Z,68.50
2023-02-03T05:36:08.416Z,68.34
2023-02-03T05:38:36.425Z,68.35
2023-02-03T05:41:21.889Z,68.37
2023-02-03T05:43:49.945Z,68.46
2023-02-03T05:46:18.013Z,68.44
2023-02-03T05:48:46.060Z,68.64
2023-02-03T05:51:15.461Z,68.47
2023-02-03T05:53:43.466Z,68.33
2023-02-03T05:56:11.386Z,68.49
2023-02-03T05:58:39.407Z,68.23
2023-02-03T06:01:07.353Z,68.58
2023-02-03T06:03:38.748Z,68.47
2023-02-03T06:06:06.823Z,68.62
2023-02-03T06:08:36.164Z,68.57
2023-02-03T06:11:04.259Z,68.40
2023-02-03T06:13:34.414Z,68.95
2023-02-03T06:16:02.407Z,69.12
2023-02-03T06:18:30.386Z,68.77
2023-02-03T06:20:58.394Z,68.97
2023-02-03T06:23:26.500Z,69.30
2023-02-03T06:25:56.019Z,69.11
2023-02-03T06:28:23.993Z,69.19
2023-02-03T06:30:54.143Z,69.11
2023-02-03T06:33:22.310Z,69.34
2023-02-03T06:35:50.612Z,69.23
2023-02-03T06:38:18.511Z,69.49
2023-02-03T06:40:47.815Z,69.50
2023-02-03T06:43:17.271Z,69.20
2023-02-03T06:45:46.537Z,69.31
2023-02-03T06:48:14.586Z,69.25
2023-02-03T06:50:42.621Z,69.00
2023-02-03T06:53:10.541Z,69.11
2023-02-03T06:55:38.558Z,69.35
2023-02-03T06:58:06.519Z,69.32
2023-02-03T07:00:36.008Z,69.15
2023-02-03T07:03:04.519Z,69.55
2023-02-03T07:05:32.595Z,69.50
2023-02-03T07:08:00.577Z,69.32
2023-02-03T07:10:28.902Z,69.11
2023-02-03T07:12:57.011Z,69.22
2023-02-03T07:15:24.965Z,69.30
2023-02-03T07:17:55.332Z,69.22
2023-02-03T07:20:23.822Z,69.09
2023-02-03T07:22:55.971Z,69.05
2023-02-03T07:25:24.290Z,69.00
2023-02-03T07:27:52.260Z,69.17
2023-02-03T07:30:20.708Z,68.83
2023-02-03T07:32:49.612Z,69.07
2023-02-03T07:35:19.031Z,68.76
2023-02-03T07:37:47.067Z,68.73
2023-02-03T07:40:15.443Z,68.95
2023-02-03T07:42:44.962Z,69.08
2023-02-03T07:45:13.081Z,69.26
2023-02-03T07:47:41.569Z,69.00
2023-02-03T07:50:10.241Z,68.94
2023-02-03T07:52:41.943Z,68.76
2023-02-03T07:55:10.183Z,69.07
2023-02-03T07:57:43.498Z,68.86
2023-02-03T08:00:14.021Z,69.08
2023-02-03T08:02:42.388Z,68.64
2023-02-03T08:05:12.440Z,68.65
2023-02-03T08:07:42.097Z,68.76
2023-02-03T08:10:10.755Z,68.74
2023-02-03T08:12:39.109Z,68.86
2023-02-03T08:15:08.697Z,68.84
2023-02-03T08:17:36.685Z,69.17
2023-02-03T08:20:05.286Z,68.86
2023-02-03T08:22:33.290Z,68.92
2023-02-03T08:25:02.817Z,68.95
2023-02-03T08:27:32.920Z,68.89
2023-02-03T08:30:00.964Z,69.11
2023-02-03T08:32:29.059Z,69.06
2023-02-03T08:34:57.202Z,69.13
2023-02-03T08:37:25.491Z,69.02
2023-02-03T08:39:53.695Z,68.99
2023-02-03T08:42:23.091Z,69.01
2023-02-03T08:44:51.201Z,69.10
2023-02-03T08:47:19.236Z,69.08
2023-02-03T08:49:47.295Z,69.08
2023-02-03T08:52:17.395Z,69.29
2023-02-03T08:54:47.609Z,69.32
2023-02-03T08:57:29.579Z,69.38
2023-02-03T08:59:59.337Z,69.21
2023-02-03T09:02:27.326Z,69.10
2023-02-03T09:04:55.420Z,69.40
2023-02-03T09:07:23.641Z,69.13
2023-02-03T09:09:53.355Z,69.36
2023-02-03T09:12:22.450Z,68.89
2023-02-03T09:14:52.345Z,69.07
2023-02-03T09:17:24.239Z,68.83
2023-02-03T09:19:52.267Z,69.09
2023-02-03T09:22:21.044Z,69.11
2023-02-03T09:25:05.400Z,69.11
2023-02-03T09:27:35.132Z,69.41
2023-02-03T09:30:03.636Z,69.46
2023-02-03T09:32:34.224Z,69.17
2023-02-03T09:35:02.421Z,68.97
2023-02-03T09:37:30.914Z,69.35
2023-02-03T09:39:59.551Z,69.59
2023-02-03T09:42:52.113Z,69.33
2023-02-03T09:45:23.781Z,69.22
2023-02-03T09:47:55.420Z,68.97
2023-02-03T09:50:35.427Z,69.01
2023-02-03T09:53:09.802Z,69.27
2023-02-03T09:55:40.643Z,69.04
2023-02-03T09:58:15.259Z,69.01
2023-02-03T10:00:44.742Z,69.00
2023-02-03T10:03:24.714Z,69.43
2023-02-03T10:06:09.369Z,68.89
2023-02-03T10:08:52.683Z,68.86
2023-02-03T10:11:59.614Z,68.81
2023-02-03T10:14:36.880Z,68.99
2023-02-03T10:17:19.080Z,68.66
2023-02-03T10:19:49.918Z,68.84
2023-02-03T10:22:20.040Z,68.76
2023-02-03T10:24:57.365Z,68.62
2023-02-03T10:27:28.558Z,68.73
2023-02-03T10:30:02.250Z,68.65
2023-02-03T10:32:40.265Z,68.53
2023-02-03T10:35:13.940Z,68.68
2023-02-03T10:37:46.260Z,68.66
2023-02-03T10:40:21.193Z,68.76
2023-02-03T10:43:06.958Z,68.73
2023-02-03T10:45:40.492Z,68.75
2023-02-03T10:48:12.552Z,68.76
2023-02-03T10:50:45.723Z,68.54
2023-02-03T10:53:36.716Z,68.46
2023-02-03T10:56:10.437Z,68.29
2023-02-03T10:58:57.199Z,68.24
2023-02-03T11:01:53.051Z,67.99
2023-02-03T11:04:53.692Z,67.47
2023-02-03T11:07:45.383Z,67.51
2023-02-03T11:10:35.999Z,67.23
2023-02-03T11:13:20.698Z,67.49
2023-02-03T11:15:59.967Z,67.18
2023-02-03T11:18:39.559Z,67.38
2023-02-03T11:21:12.422Z,67.05
2023-02-03T11:23:47.099Z,66.92
2023-02-03T11:26:16.502Z,66.73
2023-02-03T11:28:50.955Z,66.58
2023-02-03T11:31:34.791Z,66.54
2023-02-03T11:34:07.437Z,66.33
2023-02-03T11:36:36.628Z,66.09
2023-02-03T11:39:26.921Z,66.04
2023-02-03T11:41:56.545Z,65.85
2023-02-03T11:44:26.285Z,66.01
2023-02-03T11:46:56.731Z,66.00
2023-02-03T11:49:51.558Z,65.72
2023-02-03T11:52:40.463Z,66.05
2023-02-03T11:55:16.135Z,65.52
2023-02-03T11:57:50.744Z,65.33
2023-02-03T12:00:27.442Z,65.41
2023-02-03T12:03:29.231Z,65.23
2023-02-03T12:06:17.975Z,65.24
2023-02-03T12:09:05.118Z,64.77
2023-02-03T12:11:42.910Z,64.26
2023-02-03T12:14:28.968Z,64.31
2023-02-03T12:17:41.227Z,63.89
2023-02-03T12:20:33.849Z,63.83
2023-02-03T12:23:19.271Z,63.41
2023-02-03T12:25:54.057Z,63.50
2023-02-03T12:28:42.269Z,63.16
2023-02-03T12:31:13.906Z,63.18
2023-02-03T12:33:50.067Z,62.98
2023-02-03T12:36:23.326Z,62.96
2023-02-03T12:38:55.652Z,62.95
2023-02-03T12:41:29.483Z,62.87
2023-02-03T12:44:02.078Z,63.13
2023-02-03T12:46:32.098Z,62.82
2023-02-03T12:49:02.470Z,62.91
2023-02-03T12:51:35.075Z,62.59
2023-02-03T12:54:07.223Z,62.40
2023-02-03T12:56:41.373Z,62.16
2023-02-03T12:59:25.155Z,62.19
2023-02-03T13:02:01.094Z,62.52
2023-02-03T13:04:36.448Z,62.30
2023-02-03T13:07:09.996Z,62.30
2023-02-03T13:09:41.219Z,62.00
2023-02-03T13:12:10.789Z,61.84
2023-02-03T13:14:46.237Z,61.87
2023-02-03T13:17:16.567Z,61.34
2023-02-03T13:19:46.990Z,61.34
2023-02-03T13:22:15.731Z,61.85
2023-02-03T13:24:45.567Z,61.88
2023-02-03T13:27:39.284Z,61.85
2023-02-03T13:30:26.829Z,61.85
2023-02-03T13:33:42.748Z,61.72
2023-02-03T13:36:21.940Z,61.89
2023-02-03T13:39:12.911Z,61.78
2023-02-03T13:41:44.203Z,61.76
2023-02-03T13:44:13.933Z,61.29
2023-02-03T13:46:43.788Z,61.35
2023-02-03T13:49:12.145Z,61.89
2023-02-03T13:51:46.354Z,61.85
2023-02-03T13:54:16.486Z,61.73
2023-02-03T13:56:56.152Z,61.97
2023-02-03T14:00:06.859Z,61.56
2023-02-03T14:03:00.889Z,61.43
2023-02-03T14:05:43.008Z,60.73
2023-02-03T14:08:54.893Z,61.28
2023-02-03T14:11:50.760Z,61.90
2023-02-03T14:15:05.314Z,62.97
2023-02-03T14:18:25.488Z,63.67
2023-02-03T14:21:13.613Z,63.49
2023-02-03T14:24:01.439Z,63.79
2023-02-03T14:26:41.653Z,63.67
2023-02-03T14:29:10.916Z,63.77
2023-02-03T14:31:59.758Z,63.70
2023-02-03T14:34:35.680Z,63.47
2023-02-03T14:37:31.309Z,62.95
2023-02-03T14:40:11.385Z,62.81
2023-02-03T14:42:51.976Z,62.37
2023-02-03T14:45:42.405Z,62.25
2023-02-03T14:48:20.936Z,61.61
2023-02-03T14:51:05.275Z,61.65
2023-02-03T14:53:52.394Z,61.09
2023-02-03T14:56:26.735Z,60.96
2023-02-03T14:58:57.270Z,60.99
2023-02-03T15:01:29.708Z,60.71
2023-02-03T15:04:22.395Z,60.64
2023-02-03T15:06:54.293Z,60.57
2023-02-03T15:09:36.818Z,60.54
2023-02-03T15:12:19.978Z,60.31
2023-02-03T15:14:48.427Z,60.45
2023-02-03T15:17:23.957Z,60.58
2023-02-03T15:19:52.426Z,60.60
2023-02-03T15:22:24.620Z,60.80
2023-02-03T15:24:58.842Z,60.82
2023-02-03T15:27:28.388Z,60.71
2023-02-03T15:30:00.418Z,60.68
2023-02-03T15:32:30.937Z,60.66
2023-02-03T15:34:59.264Z,61.03
2023-02-03T15:37:29.984Z,61.03
2023-02-03T15:40:06.199Z,60.98
2023-02-03T15:42:37.966Z,61.03
2023-02-03T15:45:33.571Z,60.97
2023-02-03T15:48:03.163Z,61.03
2023-02-03T15:50:32.247Z,60.81
2023-02-03T15:53:03.391Z,60.84
2023-02-03T15:55:34.591Z,60.71
2023-02-03T15:58:09.216Z,61.24
2023-02-03T16:00:39.470Z,61.08
2023-02-03T16:03:17.080Z,61.15
2023-02-03T16:05:49.215Z,61.38
2023-02-03T16:08:35.290Z,61.45
2023-02-03T16:11:25.367Z,61.73
2023-02-03T16:13:55.587Z,61.93
2023-02-03T16:16:25.250Z,61.88
2023-02-03T16:18:54.409Z,61.88
2023-02-03T16:21:44.679Z,62.13
2023-02-03T16:24:41.061Z,62.29
2023-02-03T16:27:33.678Z,62.36
2023-02-03T16:30:42.313Z,62.38
2023-02-03T16:33:36.077Z,62.79
2023-02-03T16:36:29.054Z,63.03
2023-02-03T16:39:14.805Z,62.66
2023-02-03T16:42:00.509Z,62.96
2023-02-03T16:44:47.393Z,63.06
2023-02-03T16:47:41.507Z,62.87
2023-02-03T16:50:41.176Z,62.90
2023-02-03T16:53:15.577Z,62.81
2023-02-03T16:55:45.481Z,62.59
2023-02-03T16:58:13.699Z,62.53
2023-02-03T17:00:52.186Z,62.57
2023-02-03T17:03:21.991Z,62.46
2023-02-03T17:05:50.245Z,62.49
2023-02-03T17:08:19.271Z,62.64
2023-02-03T17:10:49.964Z,62.40
2023-02-03T17:13:19.431Z,62.23
2023-02-03T17:15:49.970Z,62.23
2023-02-03T17:18:18.168Z,62.20
2023-02-03T17:20:46.861Z,61.88
2023-02-03T17:23:16.124Z,62.44
2023-02-03T17:25:46.845Z,62.31
2023-02-03T17:28:17.035Z,62.48
2023-02-03T17:30:45.129Z,62.34
2023-02-03T17:33:14.450Z,62.52
2023-02-03T17:35:42.564Z,62.40
2023-02-03T17:38:10.697Z,62.38
2023-02-03T17:54:48.048Z,62.63
2023-02-03T17:57:16.429Z,62.52
2023-02-03T17:59:44.419Z,62.41
2023-02-03T18:02:14.717Z,62.25
2023-02-03T18:04:44.672Z,62.25
2023-02-03T18:07:12.913Z,62.30
2023-02-03T18:09:41.733Z,62.21
2023-02-03T18:12:12.079Z,61.87
2023-02-03T18:14:41.124Z,61.92
2023-02-03T18:17:11.701Z,61.81
2023-02-03T18:19:41.178Z,61.90
2023-02-03T18:22:12.915Z,61.72
2023-02-03T18:24:45.077Z,61.59
2023-02-03T18:27:17.280Z,61.76
2023-02-03T18:29:45.844Z,61.41
2023-02-03T18:32:13.872Z,61.07
2023-02-03T18:34:42.805Z,60.91
2023-02-03T18:37:12.429Z,61.38
2023-02-03T18:39:40.454Z,61.15
2023-02-03T18:42:08.424Z,61.24
2023-02-03T18:44:37.042Z,61.04
2023-02-03T18:47:07.743Z,61.11
2023-02-03T18:49:36.044Z,61.26
2023-02-03T18:52:04.266Z,61.17
2023-02-03T18:54:33.620Z,61.00
2023-02-03T18:57:02.921Z,61.00
2023-02-03T18:59:30.992Z,60.96
2023-02-03T19:01:58.979Z,61.08
2023-02-03T19:04:26.976Z,61.20
2023-02-03T19:06:55.287Z,61.09
2023-02-03T19:09:25.179Z,60.88
2023-02-03T19:11:54.556Z,60.39
2023-02-03T19:14:24.551Z,60.57
2023-02-03T19:16:53.154Z,59.91
2023-02-03T19:19:25.449Z,59.77
2023-02-03T19:21:59.534Z,59.44
2023-02-03T19:24:27.769Z,59.69
2023-02-03T19:26:57.154Z,59.82
2023-02-03T19:29:25.126Z,59.61
2023-02-03T19:31:53.191Z,59.43
2023-02-03T19:34:23.239Z,59.14
2023-02-03T19:36:52.704Z,58.82
2023-02-03T19:39:21.645Z,58.76
2023-02-03T19:41:49.576Z,58.66
2023-02-03T19:44:18.897Z,58.60
2023-02-03T19:46:46.996Z,58.78
2023-02-03T19:49:15.267Z,58.62
2023-02-03T19:51:43.568Z,58.72
2023-02-03T19:54:12.126Z,58.78
2023-02-03T19:56:40.159Z,58.62
2023-02-03T19:59:08.297Z,58.99
2023-02-03T20:01:38.353Z,58.62
2023-02-03T20:04:07.537Z,58.89
2023-02-03T20:06:38.265Z,58.86
2023-02-03T20:09:09.883Z,59.04
2023-02-03T20:11:37.980Z,59.20
2023-02-03T20:14:08.620Z,58.98
2023-02-03T20:16:38.340Z,59.05
2023-02-03T20:19:06.983Z,59.07
2023-02-03T20:21:34.921Z,59.13
2023-02-03T20:24:03.072Z,59.08
2023-02-03T20:26:31.006Z,59.12
2023-02-03T20:28:59.035Z,59.23
2023-02-03T20:31:27.093Z,59.42
2023-02-03T20:33:56.722Z,59.30
2023-02-03T20:36:24.870Z,59.43
2023-02-03T20:38:52.997Z,59.59
2023-02-03T20:41:20.956Z,59.68
2023-02-03T20:43:50.152Z,59.74
2023-02-03T20:46:19.584Z,59.73
2023-02-03T20:48:48.437Z,59.64
2023-02-03T20:51:21.008Z,59.60
2023-02-03T20:53:50.169Z,58.86
2023-02-03T20:56:19.399Z,58.71
2023-02-03T20:58:47.509Z,58.43
2023-02-03T21:01:16.177Z,57.79
2023-02-03T21:04:01.690Z,57.85
2023-02-03T21:06:32.166Z,57.62
2023-02-03T21:09:04.124Z,57.50
2023-02-03T21:11:32.300Z,57.49
2023-02-03T21:14:06.304Z,57.80
2023-02-03T21:16:40.001Z,57.82
2023-02-03T21:19:09.720Z,58.05
2023-02-03T21:21:44.636Z,58.33
2023-02-03T21:24:24.871Z,58.13
2023-02-03T21:27:03.369Z,58.47
2023-02-03T21:29:33.670Z,58.48
2023-02-03T21:32:04.132Z,58.72
2023-02-03T21:34:33.025Z,58.89
2023-02-03T21:37:27.823Z,58.92
2023-02-03T21:39:55.944Z,59.11
2023-02-03T21:42:41.882Z,59.09
2023-02-03T21:45:28.446Z,59.09
2023-02-03T21:47:59.692Z,59.15
2023-02-03T21:50:29.530Z,58.93
2023-02-03T21:52:59.315Z,59.07
2023-02-03T21:55:27.281Z,59.17
2023-02-03T21:57:55.330Z,58.98
2023-02-03T22:00:38.959Z,59.24
2023-02-03T22:03:08.505Z,59.20
2023-02-03T22:05:39.091Z,58.90
2023-02-03T22:08:16.650Z,58.67
2023-02-03T22:10:46.779Z,58.52
2023-02-03T22:13:15.007Z,57.71
2023-02-03T22:15:43.185Z,57.53
2023-02-03T22:18:12.155Z,57.42
2023-02-03T22:20:43.759Z,56.83
2023-02-03T22:23:20.602Z,57.51
2023-02-03T22:25:48.779Z,56.80
2023-02-03T22:28:17.100Z,56.74
2023-02-03T22:30:45.316Z,56.36
2023-02-03T22:33:13.596Z,56.30
2023-02-03T22:35:41.524Z,55.98
2023-02-03T22:38:09.567Z,56.19
2023-02-03T22:40:38.952Z,55.58
2023-02-03T22:43:07.191Z,55.61
2023-02-03T22:45:35.217Z,54.68
2023-02-03T22:48:03.253Z,55.33
2023-02-03T22:50:35.761Z,55.13
2023-02-03T22:53:04.766Z,54.86
2023-02-03T22:55:32.895Z,54.28
2023-02-03T22:58:02.807Z,54.65
2023-02-03T23:00:31.157Z,54.83
2023-02-03T23:02:59.327Z,54.96
2023-02-03T23:05:27.516Z,54.86
2023-02-03T23:07:55.952Z,55.00
2023-02-03T23:10:32.943Z,54.48
2023-02-03T23:13:02.425Z,55.06
2023-02-03T23:15:30.611Z,54.94
2023-02-03T23:17:58.806Z,54.94
2023-02-03T23:20:33.285Z,55.26
2023-02-03T23:23:11.358Z,55.22
2023-02-03T23:25:39.374Z,55.30
2023-02-03T23:28:11.195Z,55.01
2023-02-03T23:30:39.217Z,55.02
2023-02-03T23:33:08.699Z,54.87
2023-02-03T23:35:46.523Z,54.14
2023-02-03T23:38:14.789Z,54.19
2023-02-03T23:40:42.897Z,53.82
2023-02-03T23:43:12.939Z,53.83
2023-02-03T23:45:43.207Z,53.78
2023-02-03T23:48:11.800Z,53.54
2023-02-03T23:50:39.725Z,53.77
2023-02-03T23:53:08.136Z,53.69
2023-02-03T23:55:36.485Z,53.73
2023-02-03T23:58:05.140Z,54.10
